sensor_id;sensor_type;location;lat;lon;timestamp;P1;durP1;ratioP1;P2;durP2;ratioP2
21903;SDS011;11116;51.554;7.812;2022-07-06T00:00:22;4.65;;;2.40;;
21903;SDS011;11116;51.554;7.812;2022-07-06T00:02:49;4.07;;;1.77;;
21903;SDS011;11116;51.554;7.812;2022-07-06T00:05:16;2.33;;;1.50;;
21903;SDS011;11116;51.554;7.812;2022-07-06T00:07:45;2.70;;;1.80;;
21903;SDS011;11116;51.554;7.812;2022-07-06T00:10:11;2.53;;;1.75;;
21903;SDS011;11116;51.554;7.812;2022-07-06T00:12:39;2.90;;;1.40;;
21903;SDS011;11116;51.554;7.812;2022-07-06T00:15:06;7.18;;;3.08;;
21903;SDS011;11116;51.554;7.812;2022-07-06T00:17:33;2.97;;;1.85;;
21903;SDS011;11116;51.554;7.812;2022-07-06T00:20:00;2.25;;;1.58;;
21903;SDS011;11116;51.554;7.812;2022-07-06T00:22:27;4.65;;;1.80;;
21903;SDS011;11116;51.554;7.812;2022-07-06T00:24:55;2.65;;;1.75;;
21903;SDS011;11116;51.554;7.812;2022-07-06T00:27:22;2.80;;;2.05;;
21903;SDS011;11116;51.554;7.812;2022-07-06T00:29:49;4.72;;;1.80;;
21903;SDS011;11116;51.554;7.812;2022-07-06T00:32:16;3.25;;;2.08;;
21903;SDS011;11116;51.554;7.812;2022-07-06T00:34:43;3.08;;;2.40;;
21903;SDS011;11116;51.554;7.812;2022-07-06T00:37:10;3.63;;;2.08;;
21903;SDS011;11116;51.554;7.812;2022-07-06T00:39:40;4.07;;;2.42;;
21903;SDS011;11116;51.554;7.812;2022-07-06T00:42:08;3.67;;;2.08;;
21903;SDS011;11116;51.554;7.812;2022-07-06T00:44:35;3.28;;;1.98;;
21903;SDS011;11116;51.554;7.812;2022-07-06T00:47:02;3.38;;;2.00;;
21903;SDS011;11116;51.554;7.812;2022-07-06T00:49:30;4.30;;;2.03;;
21903;SDS011;11116;51.554;7.812;2022-07-06T00:52:15;5.03;;;2.00;;
21903;SDS011;11116;51.554;7.812;2022-07-06T00:54:42;6.65;;;2.40;;
21903;SDS011;11116;51.554;7.812;2022-07-06T00:57:11;5.85;;;2.38;;
21903;SDS011;11116;51.554;7.812;2022-07-06T00:59:38;4.20;;;2.40;;
21903;SDS011;11116;51.554;7.812;2022-07-06T01:02:05;3.58;;;2.17;;
21903;SDS011;11116;51.554;7.812;2022-07-06T01:04:32;4.30;;;2.42;;
21903;SDS011;11116;51.554;7.812;2022-07-06T01:06:59;8.70;;;2.75;;
21903;SDS011;11116;51.554;7.812;2022-07-06T01:09:26;8.27;;;2.50;;
21903;SDS011;11116;51.554;7.812;2022-07-06T01:11:55;3.80;;;2.08;;
21903;SDS011;11116;51.554;7.812;2022-07-06T01:14:23;6.28;;;2.50;;
21903;SDS011;11116;51.554;7.812;2022-07-06T01:16:51;4.95;;;2.45;;
21903;SDS011;11116;51.554;7.812;2022-07-06T01:19:18;3.50;;;2.17;;
21903;SDS011;11116;51.554;7.812;2022-07-06T01:21:46;7.13;;;2.10;;
21903;SDS011;11116;51.554;7.812;2022-07-06T01:24:13;5.18;;;2.40;;
21903;SDS011;11116;51.554;7.812;2022-07-06T01:26:40;5.13;;;2.20;;
21903;SDS011;11116;51.554;7.812;2022-07-06T01:29:07;3.15;;;2.30;;
21903;SDS011;11116;51.554;7.812;2022-07-06T01:31:34;5.88;;;1.83;;
21903;SDS011;11116;51.554;7.812;2022-07-06T01:34:01;4.07;;;2.05;;
21903;SDS011;11116;51.554;7.812;2022-07-06T01:36:28;3.88;;;2.50;;
21903;SDS011;11116;51.554;7.812;2022-07-06T01:38:56;4.65;;;2.05;;
21903;SDS011;11116;51.554;7.812;2022-07-06T01:41:24;5.07;;;2.17;;
21903;SDS011;11116;51.554;7.812;2022-07-06T01:43:51;2.33;;;2.15;;
21903;SDS011;11116;51.554;7.812;2022-07-06T01:46:18;2.55;;;2.17;;
21903;SDS011;11116;51.554;7.812;2022-07-06T01:48:46;4.97;;;2.17;;
21903;SDS011;11116;51.554;7.812;2022-07-06T01:51:13;3.83;;;2.65;;
21903;SDS011;11116;51.554;7.812;2022-07-06T01:53:42;6.13;;;2.90;;
21903;SDS011;11116;51.554;7.812;2022-07-06T01:56:11;4.82;;;2.50;;
21903;SDS011;11116;51.554;7.812;2022-07-06T01:58:39;2.72;;;2.28;;
21903;SDS011;11116;51.554;7.812;2022-07-06T02:01:08;5.10;;;2.30;;
21903;SDS011;11116;51.554;7.812;2022-07-06T02:03:35;4.90;;;2.80;;
21903;SDS011;11116;51.554;7.812;2022-07-06T02:06:02;4.72;;;2.40;;
21903;SDS011;11116;51.554;7.812;2022-07-06T02:08:30;7.55;;;2.63;;
21903;SDS011;11116;51.554;7.812;2022-07-06T02:10:57;8.05;;;2.80;;
21903;SDS011;11116;51.554;7.812;2022-07-06T02:13:26;4.15;;;2.70;;
21903;SDS011;11116;51.554;7.812;2022-07-06T02:15:53;6.43;;;2.53;;
21903;SDS011;11116;51.554;7.812;2022-07-06T02:18:20;4.03;;;2.60;;
21903;SDS011;11116;51.554;7.812;2022-07-06T02:20:47;4.30;;;2.50;;
21903;SDS011;11116;51.554;7.812;2022-07-06T02:23:14;5.53;;;2.50;;
21903;SDS011;11116;51.554;7.812;2022-07-06T02:25:41;2.13;;;2.03;;
21903;SDS011;11116;51.554;7.812;2022-07-06T02:28:08;3.97;;;2.38;;
21903;SDS011;11116;51.554;7.812;2022-07-06T02:30:37;3.00;;;2.80;;
21903;SDS011;11116;51.554;7.812;2022-07-06T02:33:04;5.63;;;2.40;;
21903;SDS011;11116;51.554;7.812;2022-07-06T02:35:32;4.30;;;2.75;;
21903;SDS011;11116;51.554;7.812;2022-07-06T02:37:59;7.65;;;2.90;;
21903;SDS011;11116;51.554;7.812;2022-07-06T02:40:26;7.40;;;3.10;;
21903;SDS011;11116;51.554;7.812;2022-07-06T02:42:53;6.07;;;2.30;;
21903;SDS011;11116;51.554;7.812;2022-07-06T02:45:20;3.90;;;2.30;;
21903;SDS011;11116;51.554;7.812;2022-07-06T02:47:49;6.30;;;2.45;;
21903;SDS011;11116;51.554;7.812;2022-07-06T02:50:17;5.60;;;2.70;;
21903;SDS011;11116;51.554;7.812;2022-07-06T02:52:44;6.03;;;2.72;;
21903;SDS011;11116;51.554;7.812;2022-07-06T02:55:11;4.78;;;2.50;;
21903;SDS011;11116;51.554;7.812;2022-07-06T02:57:39;3.63;;;2.55;;
21903;SDS011;11116;51.554;7.812;2022-07-06T03:00:06;4.65;;;2.40;;
21903;SDS011;11116;51.554;7.812;2022-07-06T03:02:35;3.33;;;2.38;;
21903;SDS011;11116;51.554;7.812;2022-07-06T03:05:05;4.15;;;2.40;;
21903;SDS011;11116;51.554;7.812;2022-07-06T03:07:32;4.47;;;2.97;;
21903;SDS011;11116;51.554;7.812;2022-07-06T03:10:00;4.25;;;2.70;;
21903;SDS011;11116;51.554;7.812;2022-07-06T03:12:27;4.53;;;2.45;;
21903;SDS011;11116;51.554;7.812;2022-07-06T03:14:54;5.25;;;2.63;;
21903;SDS011;11116;51.554;7.812;2022-07-06T03:17:22;6.13;;;3.30;;
21903;SDS011;11116;51.554;7.812;2022-07-06T03:19:50;3.85;;;2.47;;
21903;SDS011;11116;51.554;7.812;2022-07-06T03:22:19;5.57;;;3.08;;
21903;SDS011;11116;51.554;7.812;2022-07-06T03:24:46;4.07;;;2.53;;
21903;SDS011;11116;51.554;7.812;2022-07-06T03:27:14;6.25;;;3.35;;
21903;SDS011;11116;51.554;7.812;2022-07-06T03:29:41;9.48;;;3.10;;
21903;SDS011;11116;51.554;7.812;2022-07-06T03:32:08;4.50;;;2.83;;
21903;SDS011;11116;51.554;7.812;2022-07-06T03:34:36;5.45;;;3.25;;
21903;SDS011;11116;51.554;7.812;2022-07-06T03:37:03;4.22;;;2.70;;
21903;SDS011;11116;51.554;7.812;2022-07-06T03:39:33;3.88;;;2.60;;
21903;SDS011;11116;51.554;7.812;2022-07-06T03:42:01;2.97;;;2.67;;
21903;SDS011;11116;51.554;7.812;2022-07-06T03:44:30;5.25;;;3.22;;
21903;SDS011;11116;51.554;7.812;2022-07-06T03:46:57;9.95;;;3.15;;
21903;SDS011;11116;51.554;7.812;2022-07-06T03:49:25;4.93;;;2.60;;
21903;SDS011;11116;51.554;7.812;2022-07-06T03:51:54;9.77;;;3.30;;
21903;SDS011;11116;51.554;7.812;2022-07-06T03:54:22;6.95;;;3.10;;
21903;SDS011;11116;51.554;7.812;2022-07-06T03:56:50;5.15;;;3.10;;
21903;SDS011;11116;51.554;7.812;2022-07-06T03:59:18;7.32;;;3.28;;
21903;SDS011;11116;51.554;7.812;2022-07-06T04:01:45;6.07;;;2.70;;
21903;SDS011;11116;51.554;7.812;2022-07-06T04:04:15;5.90;;;3.13;;
21903;SDS011;11116;51.554;7.812;2022-07-06T04:06:44;4.68;;;3.25;;
21903;SDS011;11116;51.554;7.812;2022-07-06T04:09:12;5.45;;;3.10;;
21903;SDS011;11116;51.554;7.812;2022-07-06T04:11:40;4.40;;;2.65;;
21903;SDS011;11116;51.554;7.812;2022-07-06T04:14:09;5.63;;;3.53;;
21903;SDS011;11116;51.554;7.812;2022-07-06T04:16:36;8.02;;;2.70;;
21903;SDS011;11116;51.554;7.812;2022-07-06T04:19:04;3.60;;;3.08;;
21903;SDS011;11116;51.554;7.812;2022-07-06T04:21:31;4.63;;;3.10;;
21903;SDS011;11116;51.554;7.812;2022-07-06T04:23:58;3.47;;;2.75;;
21903;SDS011;11116;51.554;7.812;2022-07-06T04:26:26;5.93;;;3.42;;
21903;SDS011;11116;51.554;7.812;2022-07-06T04:28:56;3.50;;;2.63;;
21903;SDS011;11116;51.554;7.812;2022-07-06T04:31:25;4.88;;;2.65;;
21903;SDS011;11116;51.554;7.812;2022-07-06T04:33:53;6.03;;;2.75;;
21903;SDS011;11116;51.554;7.812;2022-07-06T04:36:20;3.38;;;2.80;;
21903;SDS011;11116;51.554;7.812;2022-07-06T04:38:46;4.38;;;2.53;;
21903;SDS011;11116;51.554;7.812;2022-07-06T04:41:14;8.57;;;3.20;;
21903;SDS011;11116;51.554;7.812;2022-07-06T04:43:42;6.38;;;2.95;;
21903;SDS011;11116;51.554;7.812;2022-07-06T04:46:12;7.85;;;3.33;;
21903;SDS011;11116;51.554;7.812;2022-07-06T04:48:43;7.40;;;3.30;;
21903;SDS011;11116;51.554;7.812;2022-07-06T04:51:16;6.78;;;2.92;;
21903;SDS011;11116;51.554;7.812;2022-07-06T04:53:43;9.65;;;3.60;;
21903;SDS011;11116;51.554;7.812;2022-07-06T04:56:11;5.90;;;3.17;;
21903;SDS011;11116;51.554;7.812;2022-07-06T04:58:39;5.15;;;2.90;;
21903;SDS011;11116;51.554;7.812;2022-07-06T05:01:08;6.57;;;2.88;;
21903;SDS011;11116;51.554;7.812;2022-07-06T05:03:35;4.97;;;3.00;;
21903;SDS011;11116;51.554;7.812;2022-07-06T05:06:07;3.40;;;2.60;;
21903;SDS011;11116;51.554;7.812;2022-07-06T05:08:34;3.38;;;2.55;;
21903;SDS011;11116;51.554;7.812;2022-07-06T05:11:01;3.95;;;2.70;;
21903;SDS011;11116;51.554;7.812;2022-07-06T05:13:29;3.20;;;2.63;;
21903;SDS011;11116;51.554;7.812;2022-07-06T05:15:56;6.05;;;2.60;;
21903;SDS011;11116;51.554;7.812;2022-07-06T05:18:24;4.80;;;2.40;;
21903;SDS011;11116;51.554;7.812;2022-07-06T05:20:51;3.97;;;2.80;;
21903;SDS011;11116;51.554;7.812;2022-07-06T05:23:20;4.55;;;2.70;;
21903;SDS011;11116;51.554;7.812;2022-07-06T05:25:47;3.08;;;2.22;;
21903;SDS011;11116;51.554;7.812;2022-07-06T05:28:14;3.85;;;3.47;;
21903;SDS011;11116;51.554;7.812;2022-07-06T05:30:43;5.20;;;2.60;;
21903;SDS011;11116;51.554;7.812;2022-07-06T05:33:11;2.85;;;2.08;;
21903;SDS011;11116;51.554;7.812;2022-07-06T05:35:38;8.60;;;2.50;;
21903;SDS011;11116;51.554;7.812;2022-07-06T05:38:06;6.13;;;2.45;;
21903;SDS011;11116;51.554;7.812;2022-07-06T05:40:35;9.98;;;2.30;;
21903;SDS011;11116;51.554;7.812;2022-07-06T05:43:03;3.92;;;2.50;;
21903;SDS011;11116;51.554;7.812;2022-07-06T05:45:30;4.70;;;2.35;;
21903;SDS011;11116;51.554;7.812;2022-07-06T05:47:58;10.05;;;2.17;;
21903;SDS011;11116;51.554;7.812;2022-07-06T05:50:42;2.92;;;2.00;;
21903;SDS011;11116;51.554;7.812;2022-07-06T05:53:10;8.80;;;2.00;;
21903;SDS011;11116;51.554;7.812;2022-07-06T05:55:38;5.22;;;2.25;;
21903;SDS011;11116;51.554;7.812;2022-07-06T05:58:06;7.65;;;2.35;;
21903;SDS011;11116;51.554;7.812;2022-07-06T06:00:33;8.27;;;2.25;;
21903;SDS011;11116;51.554;7.812;2022-07-06T06:03:07;6.30;;;1.67;;
21903;SDS011;11116;51.554;7.812;2022-07-06T06:05:34;4.40;;;2.10;;
21903;SDS011;11116;51.554;7.812;2022-07-06T06:08:04;4.00;;;2.25;;
21903;SDS011;11116;51.554;7.812;2022-07-06T06:10:32;4.38;;;2.08;;
21903;SDS011;11116;51.554;7.812;2022-07-06T06:13:03;5.40;;;1.75;;
21903;SDS011;11116;51.554;7.812;2022-07-06T06:15:32;2.65;;;1.73;;
21903;SDS011;11116;51.554;7.812;2022-07-06T06:17:59;4.57;;;1.70;;
21903;SDS011;11116;51.554;7.812;2022-07-06T06:20:26;9.23;;;2.03;;
21903;SDS011;11116;51.554;7.812;2022-07-06T06:22:54;4.50;;;1.50;;
21903;SDS011;11116;51.554;7.812;2022-07-06T06:25:27;4.47;;;1.75;;
21903;SDS011;11116;51.554;7.812;2022-07-06T06:27:55;2.85;;;1.77;;
21903;SDS011;11116;51.554;7.812;2022-07-06T06:30:23;6.63;;;1.83;;
21903;SDS011;11116;51.554;7.812;2022-07-06T06:32:50;5.68;;;1.60;;
21903;SDS011;11116;51.554;7.812;2022-07-06T06:35:18;6.75;;;1.85;;
21903;SDS011;11116;51.554;7.812;2022-07-06T06:37:44;5.75;;;1.55;;
21903;SDS011;11116;51.554;7.812;2022-07-06T06:40:11;6.25;;;2.05;;
21903;SDS011;11116;51.554;7.812;2022-07-06T06:42:38;9.02;;;2.70;;
21903;SDS011;11116;51.554;7.812;2022-07-06T06:45:10;4.15;;;1.85;;
21903;SDS011;11116;51.554;7.812;2022-07-06T06:47:38;6.63;;;2.22;;
21903;SDS011;11116;51.554;7.812;2022-07-06T06:50:06;5.95;;;1.52;;
21903;SDS011;11116;51.554;7.812;2022-07-06T06:52:33;4.07;;;1.75;;
21903;SDS011;11116;51.554;7.812;2022-07-06T06:55:00;4.90;;;2.10;;
21903;SDS011;11116;51.554;7.812;2022-07-06T06:57:27;4.70;;;1.85;;
21903;SDS011;11116;51.554;7.812;2022-07-06T06:59:54;3.85;;;1.65;;
21903;SDS011;11116;51.554;7.812;2022-07-06T07:02:22;7.65;;;1.80;;
21903;SDS011;11116;51.554;7.812;2022-07-06T07:04:51;2.90;;;1.98;;
21903;SDS011;11116;51.554;7.812;2022-07-06T07:07:18;5.65;;;1.65;;
21903;SDS011;11116;51.554;7.812;2022-07-06T07:09:44;6.07;;;1.90;;
21903;SDS011;11116;51.554;7.812;2022-07-06T07:12:11;5.45;;;1.98;;
21903;SDS011;11116;51.554;7.812;2022-07-06T07:14:40;5.95;;;1.95;;
21903;SDS011;11116;51.554;7.812;2022-07-06T07:17:07;5.28;;;1.60;;
21903;SDS011;11116;51.554;7.812;2022-07-06T07:19:34;5.35;;;1.98;;
21903;SDS011;11116;51.554;7.812;2022-07-06T07:22:03;2.90;;;1.90;;
21903;SDS011;11116;51.554;7.812;2022-07-06T07:24:30;7.38;;;2.15;;
21903;SDS011;11116;51.554;7.812;2022-07-06T07:26:57;3.35;;;1.55;;
21903;SDS011;11116;51.554;7.812;2022-07-06T07:29:23;4.18;;;1.63;;
21903;SDS011;11116;51.554;7.812;2022-07-06T07:31:50;3.70;;;1.55;;
21903;SDS011;11116;51.554;7.812;2022-07-06T07:34:18;5.22;;;1.73;;
21903;SDS011;11116;51.554;7.812;2022-07-06T07:36:44;3.70;;;1.38;;
21903;SDS011;11116;51.554;7.812;2022-07-06T07:39:13;4.57;;;1.50;;
21903;SDS011;11116;51.554;7.812;2022-07-06T07:41:40;2.38;;;1.30;;
21903;SDS011;11116;51.554;7.812;2022-07-06T07:44:07;8.05;;;1.60;;
21903;SDS011;11116;51.554;7.812;2022-07-06T07:46:34;2.38;;;1.35;;
21903;SDS011;11116;51.554;7.812;2022-07-06T07:49:01;3.78;;;1.45;;
21903;SDS011;11116;51.554;7.812;2022-07-06T07:51:29;4.25;;;1.55;;
21903;SDS011;11116;51.554;7.812;2022-07-06T07:53:56;4.57;;;1.10;;
21903;SDS011;11116;51.554;7.812;2022-07-06T07:56:25;5.35;;;1.60;;
21903;SDS011;11116;51.554;7.812;2022-07-06T07:58:51;5.82;;;1.30;;
21903;SDS011;11116;51.554;7.812;2022-07-06T08:01:23;5.85;;;1.40;;
21903;SDS011;11116;51.554;7.812;2022-07-06T08:03:50;7.60;;;1.38;;
21903;SDS011;11116;51.554;7.812;2022-07-06T08:06:16;6.38;;;1.55;;
21903;SDS011;11116;51.554;7.812;2022-07-06T08:08:43;2.08;;;0.93;;
21903;SDS011;11116;51.554;7.812;2022-07-06T08:11:10;2.13;;;0.98;;
21903;SDS011;11116;51.554;7.812;2022-07-06T08:13:39;3.78;;;1.00;;
21903;SDS011;11116;51.554;7.812;2022-07-06T08:16:06;6.55;;;1.25;;
21903;SDS011;11116;51.554;7.812;2022-07-06T08:18:33;3.42;;;0.90;;
21903;SDS011;11116;51.554;7.812;2022-07-06T08:21:00;2.30;;;1.20;;
21903;SDS011;11116;51.554;7.812;2022-07-06T08:23:27;1.92;;;1.05;;
21903;SDS011;11116;51.554;7.812;2022-07-06T08:25:54;3.95;;;1.00;;
21903;SDS011;11116;51.554;7.812;2022-07-06T08:28:21;5.15;;;0.93;;
21903;SDS011;11116;51.554;7.812;2022-07-06T08:30:49;2.00;;;0.88;;
21903;SDS011;11116;51.554;7.812;2022-07-06T08:33:16;2.83;;;1.00;;
21903;SDS011;11116;51.554;7.812;2022-07-06T08:35:43;2.05;;;0.82;;
21903;SDS011;11116;51.554;7.812;2022-07-06T08:38:10;6.45;;;1.02;;
21903;SDS011;11116;51.554;7.812;2022-07-06T08:40:38;1.25;;;0.98;;
21903;SDS011;11116;51.554;7.812;2022-07-06T08:43:06;2.25;;;0.95;;
21903;SDS011;11116;51.554;7.812;2022-07-06T08:45:34;2.17;;;0.77;;
21903;SDS011;11116;51.554;7.812;2022-07-06T08:48:03;5.30;;;1.23;;
21903;SDS011;11116;51.554;7.812;2022-07-06T08:50:32;3.50;;;0.98;;
21903;SDS011;11116;51.554;7.812;2022-07-06T08:52:59;2.10;;;0.75;;
21903;SDS011;11116;51.554;7.812;2022-07-06T08:55:26;1.20;;;0.60;;
21903;SDS011;11116;51.554;7.812;2022-07-06T08:57:54;9.88;;;7.45;;
21903;SDS011;11116;51.554;7.812;2022-07-06T09:00:21;47.53;;;9.68;;
21903;SDS011;11116;51.554;7.812;2022-07-06T09:02:49;4.13;;;1.40;;
21903;SDS011;11116;51.554;7.812;2022-07-06T09:05:17;7.68;;;1.05;;
21903;SDS011;11116;51.554;7.812;2022-07-06T09:07:45;2.67;;;1.10;;
21903;SDS011;11116;51.554;7.812;2022-07-06T09:10:16;5.20;;;1.70;;
21903;SDS011;11116;51.554;7.812;2022-07-06T09:12:44;4.07;;;1.25;;
21903;SDS011;11116;51.554;7.812;2022-07-06T09:15:11;2.25;;;0.95;;
21903;SDS011;11116;51.554;7.812;2022-07-06T09:17:38;1.77;;;1.10;;
21903;SDS011;11116;51.554;7.812;2022-07-06T09:20:06;3.50;;;1.02;;
21903;SDS011;11116;51.554;7.812;2022-07-06T09:22:35;2.40;;;1.10;;
21903;SDS011;11116;51.554;7.812;2022-07-06T09:25:03;1.67;;;0.80;;
21903;SDS011;11116;51.554;7.812;2022-07-06T09:27:36;2.05;;;0.80;;
21903;SDS011;11116;51.554;7.812;2022-07-06T09:30:04;1.85;;;0.95;;
21903;SDS011;11116;51.554;7.812;2022-07-06T09:32:32;3.17;;;0.98;;
21903;SDS011;11116;51.554;7.812;2022-07-06T09:35:05;1.98;;;0.88;;
21903;SDS011;11116;51.554;7.812;2022-07-06T09:37:32;4.47;;;0.82;;
21903;SDS011;11116;51.554;7.812;2022-07-06T09:40:00;3.33;;;0.90;;
21903;SDS011;11116;51.554;7.812;2022-07-06T09:42:41;4.57;;;0.90;;
21903;SDS011;11116;51.554;7.812;2022-07-06T09:45:08;3.72;;;0.90;;
21903;SDS011;11116;51.554;7.812;2022-07-06T09:47:36;2.78;;;0.82;;
21903;SDS011;11116;51.554;7.812;2022-07-06T09:50:07;3.08;;;0.95;;
21903;SDS011;11116;51.554;7.812;2022-07-06T09:52:34;2.33;;;1.20;;
21903;SDS011;11116;51.554;7.812;2022-07-06T09:55:08;2.22;;;1.20;;
21903;SDS011;11116;51.554;7.812;2022-07-06T09:57:51;3.45;;;0.80;;
21903;SDS011;11116;51.554;7.812;2022-07-06T10:00:20;4.40;;;0.90;;
21903;SDS011;11116;51.554;7.812;2022-07-06T10:02:47;2.05;;;0.82;;
21903;SDS011;11116;51.554;7.812;2022-07-06T10:05:15;5.35;;;0.85;;
21903;SDS011;11116;51.554;7.812;2022-07-06T10:07:43;5.35;;;1.00;;
21903;SDS011;11116;51.554;7.812;2022-07-06T10:10:13;9.63;;;0.80;;
21903;SDS011;11116;51.554;7.812;2022-07-06T10:12:42;4.57;;;0.82;;
21903;SDS011;11116;51.554;7.812;2022-07-06T10:15:11;2.38;;;0.82;;
21903;SDS011;11116;51.554;7.812;2022-07-06T10:17:37;5.28;;;0.70;;
21903;SDS011;11116;51.554;7.812;2022-07-06T10:20:06;1.15;;;0.80;;
21903;SDS011;11116;51.554;7.812;2022-07-06T10:22:34;4.03;;;0.98;;
21903;SDS011;11116;51.554;7.812;2022-07-06T10:25:01;1.30;;;0.77;;
21903;SDS011;11116;51.554;7.812;2022-07-06T10:27:30;3.80;;;1.08;;
21903;SDS011;11116;51.554;7.812;2022-07-06T10:29:59;3.92;;;0.90;;
21903;SDS011;11116;51.554;7.812;2022-07-06T10:32:26;1.30;;;0.60;;
21903;SDS011;11116;51.554;7.812;2022-07-06T10:34:54;2.40;;;0.85;;
21903;SDS011;11116;51.554;7.812;2022-07-06T10:37:22;4.13;;;1.27;;
21903;SDS011;11116;51.554;7.812;2022-07-06T10:39:51;4.32;;;0.80;;
21903;SDS011;11116;51.554;7.812;2022-07-06T10:42:40;2.45;;;0.90;;
21903;SDS011;11116;51.554;7.812;2022-07-06T10:45:08;1.67;;;0.60;;
21903;SDS011;11116;51.554;7.812;2022-07-06T10:47:38;2.13;;;0.70;;
21903;SDS011;11116;51.554;7.812;2022-07-06T10:50:06;3.25;;;0.88;;
21903;SDS011;11116;51.554;7.812;2022-07-06T10:52:50;2.70;;;0.90;;
21903;SDS011;11116;51.554;7.812;2022-07-06T10:55:27;2.03;;;0.88;;
21903;SDS011;11116;51.554;7.812;2022-07-06T10:57:56;0.63;;;0.50;;
21903;SDS011;11116;51.554;7.812;2022-07-06T11:00:23;1.58;;;0.80;;
21903;SDS011;11116;51.554;7.812;2022-07-06T11:02:50;2.70;;;0.90;;
21903;SDS011;11116;51.554;7.812;2022-07-06T11:08:08;0.60;;;0.50;;
21903;SDS011;11116;51.554;7.812;2022-07-06T11:10:45;1.98;;;0.75;;
21903;SDS011;11116;51.554;7.812;2022-07-06T11:13:26;1.13;;;0.80;;
21903;SDS011;11116;51.554;7.812;2022-07-06T11:16:00;4.30;;;0.60;;
21903;SDS011;11116;51.554;7.812;2022-07-06T11:18:29;1.83;;;0.68;;
21903;SDS011;11116;51.554;7.812;2022-07-06T11:21:15;1.70;;;0.60;;
21903;SDS011;11116;51.554;7.812;2022-07-06T11:23:45;2.05;;;0.77;;
21903;SDS011;11116;51.554;7.812;2022-07-06T11:26:13;1.15;;;0.50;;
21903;SDS011;11116;51.554;7.812;2022-07-06T11:28:42;4.18;;;0.68;;
21903;SDS011;11116;51.554;7.812;2022-07-06T11:31:12;2.40;;;0.55;;
21903;SDS011;11116;51.554;7.812;2022-07-06T11:33:39;1.90;;;0.63;;
21903;SDS011;11116;51.554;7.812;2022-07-06T11:36:16;1.85;;;0.60;;
21903;SDS011;11116;51.554;7.812;2022-07-06T11:38:44;2.83;;;0.70;;
21903;SDS011;11116;51.554;7.812;2022-07-06T11:41:11;2.15;;;0.73;;
21903;SDS011;11116;51.554;7.812;2022-07-06T11:43:41;3.42;;;0.93;;
21903;SDS011;11116;51.554;7.812;2022-07-06T11:46:24;4.05;;;0.50;;
21903;SDS011;11116;51.554;7.812;2022-07-06T11:48:54;3.25;;;0.65;;
21903;SDS011;11116;51.554;7.812;2022-07-06T11:51:22;1.02;;;0.63;;
21903;SDS011;11116;51.554;7.812;2022-07-06T11:53:51;4.75;;;0.85;;
21903;SDS011;11116;51.554;7.812;2022-07-06T11:56:19;2.40;;;0.60;;
21903;SDS011;11116;51.554;7.812;2022-07-06T11:58:50;2.28;;;0.63;;
21903;SDS011;11116;51.554;7.812;2022-07-06T12:01:17;2.53;;;0.50;;
21903;SDS011;11116;51.554;7.812;2022-07-06T12:03:44;1.60;;;0.63;;
21903;SDS011;11116;51.554;7.812;2022-07-06T12:06:13;8.85;;;0.90;;
21903;SDS011;11116;51.554;7.812;2022-07-06T12:08:42;0.75;;;0.60;;
21903;SDS011;11116;51.554;7.812;2022-07-06T12:11:09;2.42;;;0.55;;
21903;SDS011;11116;51.554;7.812;2022-07-06T12:13:37;2.38;;;0.90;;
21903;SDS011;11116;51.554;7.812;2022-07-06T12:16:10;3.17;;;0.63;;
21903;SDS011;11116;51.554;7.812;2022-07-06T12:18:37;2.42;;;0.60;;
21903;SDS011;11116;51.554;7.812;2022-07-06T12:21:06;1.50;;;0.73;;
21903;SDS011;11116;51.554;7.812;2022-07-06T12:23:41;1.77;;;0.60;;
21903;SDS011;11116;51.554;7.812;2022-07-06T12:26:08;1.48;;;0.90;;
21903;SDS011;11116;51.554;7.812;2022-07-06T12:28:36;2.00;;;0.80;;
21903;SDS011;11116;51.554;7.812;2022-07-06T12:31:03;1.13;;;0.57;;
21903;SDS011;11116;51.554;7.812;2022-07-06T12:33:31;5.90;;;1.92;;
21903;SDS011;11116;51.554;7.812;2022-07-06T12:36:08;3.05;;;0.63;;
21903;SDS011;11116;51.554;7.812;2022-07-06T12:38:46;2.38;;;0.70;;
21903;SDS011;11116;51.554;7.812;2022-07-06T12:41:27;2.67;;;0.70;;
21903;SDS011;11116;51.554;7.812;2022-07-06T12:44:03;4.63;;;0.70;;
21903;SDS011;11116;51.554;7.812;2022-07-06T12:46:34;0.95;;;0.68;;
21903;SDS011;11116;51.554;7.812;2022-07-06T12:49:10;0.82;;;0.57;;
21903;SDS011;11116;51.554;7.812;2022-07-06T12:51:52;2.78;;;0.80;;
21903;SDS011;11116;51.554;7.812;2022-07-06T12:54:25;1.75;;;0.43;;
21903;SDS011;11116;51.554;7.812;2022-07-06T12:57:01;6.05;;;0.93;;
21903;SDS011;11116;51.554;7.812;2022-07-06T12:59:31;3.95;;;1.20;;
21903;SDS011;11116;51.554;7.812;2022-07-06T13:01:59;1.90;;;0.50;;
21903;SDS011;11116;51.554;7.812;2022-07-06T13:04:28;5.80;;;0.80;;
21903;SDS011;11116;51.554;7.812;2022-07-06T13:06:57;2.88;;;0.57;;
21903;SDS011;11116;51.554;7.812;2022-07-06T13:09:24;3.13;;;0.95;;
21903;SDS011;11116;51.554;7.812;2022-07-06T13:11:51;3.67;;;1.15;;
21903;SDS011;11116;51.554;7.812;2022-07-06T13:14:18;2.05;;;0.70;;
21903;SDS011;11116;51.554;7.812;2022-07-06T13:16:46;4.38;;;0.93;;
21903;SDS011;11116;51.554;7.812;2022-07-06T13:19:13;5.15;;;0.90;;
21903;SDS011;11116;51.554;7.812;2022-07-06T13:21:42;5.93;;;0.63;;
21903;SDS011;11116;51.554;7.812;2022-07-06T13:24:11;2.03;;;0.70;;
21903;SDS011;11116;51.554;7.812;2022-07-06T13:26:38;2.58;;;0.52;;
21903;SDS011;11116;51.554;7.812;2022-07-06T13:29:05;5.07;;;0.80;;
21903;SDS011;11116;51.554;7.812;2022-07-06T13:31:32;6.63;;;0.82;;
21903;SDS011;11116;51.554;7.812;2022-07-06T13:33:59;3.63;;;0.70;;
21903;SDS011;11116;51.554;7.812;2022-07-06T13:36:26;1.60;;;0.73;;
21903;SDS011;11116;51.554;7.812;2022-07-06T13:38:55;2.45;;;0.98;;
21903;SDS011;11116;51.554;7.812;2022-07-06T13:41:22;1.52;;;1.20;;
21903;SDS011;11116;51.554;7.812;2022-07-06T13:43:49;1.52;;;0.50;;
21903;SDS011;11116;51.554;7.812;2022-07-06T13:46:16;4.32;;;0.80;;
21903;SDS011;11116;51.554;7.812;2022-07-06T13:48:43;2.30;;;0.82;;
21903;SDS011;11116;51.554;7.812;2022-07-06T13:51:10;0.68;;;0.50;;
21903;SDS011;11116;51.554;7.812;2022-07-06T13:53:37;1.15;;;0.50;;
21903;SDS011;11116;51.554;7.812;2022-07-06T13:56:06;1.55;;;0.50;;
21903;SDS011;11116;51.554;7.812;2022-07-06T13:58:33;1.40;;;0.60;;
21903;SDS011;11116;51.554;7.812;2022-07-06T14:01:00;3.17;;;0.73;;
21903;SDS011;11116;51.554;7.812;2022-07-06T14:03:27;1.65;;;0.68;;
21903;SDS011;11116;51.554;7.812;2022-07-06T14:05:55;1.48;;;0.70;;
21903;SDS011;11116;51.554;7.812;2022-07-06T14:08:23;1.98;;;0.70;;
21903;SDS011;11116;51.554;7.812;2022-07-06T14:10:50;1.25;;;0.55;;
21903;SDS011;11116;51.554;7.812;2022-07-06T14:13:19;4.22;;;0.68;;
21903;SDS011;11116;51.554;7.812;2022-07-06T14:15:47;2.45;;;0.88;;
21903;SDS011;11116;51.554;7.812;2022-07-06T14:18:14;4.15;;;0.77;;
21903;SDS011;11116;51.554;7.812;2022-07-06T14:20:42;2.20;;;0.60;;
21903;SDS011;11116;51.554;7.812;2022-07-06T14:23:09;3.60;;;0.90;;
21903;SDS011;11116;51.554;7.812;2022-07-06T14:25:36;6.70;;;0.93;;
21903;SDS011;11116;51.554;7.812;2022-07-06T14:28:03;3.88;;;0.80;;
21903;SDS011;11116;51.554;7.812;2022-07-06T14:30:32;2.90;;;0.50;;
21903;SDS011;11116;51.554;7.812;2022-07-06T14:33:02;4.50;;;0.95;;
21903;SDS011;11116;51.554;7.812;2022-07-06T14:35:32;2.70;;;0.60;;
21903;SDS011;11116;51.554;7.812;2022-07-06T14:38:00;4.25;;;0.63;;
21903;SDS011;11116;51.554;7.812;2022-07-06T14:40:27;2.50;;;0.73;;
21903;SDS011;11116;51.554;7.812;2022-07-06T14:42:54;4.22;;;0.73;;
21903;SDS011;11116;51.554;7.812;2022-07-06T14:45:21;1.75;;;0.65;;
21903;SDS011;11116;51.554;7.812;2022-07-06T14:47:49;2.83;;;1.20;;
21903;SDS011;11116;51.554;7.812;2022-07-06T14:50:16;2.92;;;0.65;;
21903;SDS011;11116;51.554;7.812;2022-07-06T14:52:44;0.60;;;0.57;;
21903;SDS011;11116;51.554;7.812;2022-07-06T14:55:11;1.20;;;0.50;;
21903;SDS011;11116;51.554;7.812;2022-07-06T14:57:38;1.83;;;0.77;;